createdAt,value
2019-04-23T00:00:13.857Z,101282.38
2019-04-23T00:02:51.210Z,101281.52
2019-04-23T00:05:29.091Z,101281.23
2019-04-23T00:07:56.142Z,101280.95
2019-04-23T00:10:30.210Z,101278.19
2019-04-23T00:13:01.117Z,101281.14
2019-04-23T00:15:42.199Z,101283.66
2019-04-23T00:18:26.562Z,101277.66
2019-04-23T00:20:48.069Z,101272.05
2019-04-23T00:23:25.862Z,101277.55
2019-04-23T00:26:02.683Z,101275.13
2019-04-23T00:31:15.481Z,101274.13
2019-04-23T00:33:44.859Z,101262.84
2019-04-23T00:36:23.019Z,101266.73
2019-04-23T00:38:50.064Z,101264.16
2019-04-23T00:41:29.651Z,101259.59
2019-04-23T00:49:05.780Z,101250.98
2019-04-23T00:51:36.826Z,101251.72
2019-04-23T00:54:12.218Z,101247.53
2019-04-23T00:56:46.216Z,101245.39
2019-04-23T00:59:21.745Z,101241.46
2019-04-23T01:04:27.968Z,101246.63
2019-04-23T01:07:09.815Z,101241.46
2019-04-23T01:09:39.321Z,101244.27
2019-04-23T01:12:15.625Z,101239.03
2019-04-23T01:14:53.811Z,101235.59
2019-04-23T01:17:26.665Z,101238.83
2019-04-23T01:19:56.283Z,101242.52
2019-04-23T01:22:12.527Z,101233.50
2019-04-23T01:25:04.595Z,101235.22
2019-04-23T01:27:55.911Z,101223.73
2019-04-23T01:30:38.840Z,101227.06
2019-04-23T01:33:10.960Z,101226.98
2019-04-23T01:35:39.720Z,101221.91
2019-04-23T01:38:24.150Z,101216.00
2019-04-23T01:40:47.209Z,101226.25
2019-04-23T01:43:22.931Z,101210.34
2019-04-23T01:45:54.611Z,101207.47
2019-04-23T01:48:36.719Z,101207.95
2019-04-23T01:51:02.492Z,101208.61
2019-04-23T01:53:38.626Z,101204.53
2019-04-23T01:56:12.545Z,101203.11
2019-04-23T02:01:26.961Z,101192.05
2019-04-23T02:04:03.568Z,101184.59
2019-04-23T02:06:24.742Z,101178.20
2019-04-23T02:09:10.582Z,101189.48
2019-04-23T02:11:33.074Z,101184.16
2019-04-23T02:14:09.459Z,101181.17
2019-04-23T02:16:45.897Z,101177.66
2019-04-23T02:22:01.290Z,101169.55
2019-04-23T02:24:34.053Z,101164.31
2019-04-23T02:27:02.707Z,101171.05
2019-04-23T02:29:54.098Z,101171.36
2019-04-23T02:32:19.102Z,101172.52
2019-04-23T02:37:35.110Z,101162.52
2019-04-23T02:45:09.445Z,101165.66
2019-04-23T02:50:31.505Z,101158.79
2019-04-23T02:53:02.833Z,101151.92
2019-04-23T02:58:00.777Z,101148.63
2019-04-23T03:00:43.465Z,101148.80
2019-04-23T03:03:06.347Z,101150.68
2019-04-23T03:05:57.332Z,101146.14
2019-04-23T03:08:17.099Z,101148.19
2019-04-23T03:10:59.627Z,101140.35
2019-04-23T03:13:42.778Z,101144.12
2019-04-23T03:16:06.491Z,101136.53
2019-04-23T03:18:53.872Z,101135.37
2019-04-23T03:21:41.076Z,101134.73
2019-04-23T03:24:14.439Z,101135.84
2019-04-23T03:26:55.560Z,101142.06
2019-04-23T03:29:19.979Z,101133.41
2019-04-23T03:39:52.121Z,101129.59
2019-04-23T03:44:47.773Z,101121.28
2019-04-23T03:49:55.345Z,101119.39
2019-04-23T03:54:49.186Z,101110.95
2019-04-23T03:57:30.630Z,101109.48
2019-04-23T04:00:13.194Z,101118.70
2019-04-23T04:05:10.826Z,101114.12
2019-04-23T04:08:02.391Z,101113.48
2019-04-23T04:10:25.499Z,101108.80
2019-04-23T04:13:00.119Z,101107.00
2019-04-23T04:18:23.989Z,101110.19
2019-04-23T04:20:55.998Z,101111.37
2019-04-23T04:33:36.875Z,101117.54
2019-04-23T04:38:40.097Z,101118.77
2019-04-23T04:41:05.504Z,101123.80
2019-04-23T04:43:55.856Z,101121.38
2019-04-23T04:46:30.999Z,101123.28
2019-04-23T04:54:09.725Z,101116.70
2019-04-23T05:01:37.998Z,101118.56
2019-04-23T05:04:19.880Z,101124.25
2019-04-23T05:07:02.156Z,101116.81
2019-04-23T05:09:22.904Z,101122.45
2019-04-23T05:12:19.172Z,101128.91
2019-04-23T05:14:56.771Z,101111.42
2019-04-23T05:20:12.901Z,101109.52
2019-04-23T05:23:00.583Z,101116.21
2019-04-23T05:25:16.963Z,101107.61
2019-04-23T05:30:32.989Z,101102.01
2019-04-23T05:36:04.788Z,101109.95
2019-04-23T05:43:20.950Z,101116.53
2019-04-23T05:45:59.721Z,101111.16
2019-04-23T05:48:46.984Z,101099.71
2019-04-23T05:53:40.745Z,101112.99
2019-04-23T05:56:06.501Z,101108.80
2019-04-23T05:58:45.635Z,101121.27
2019-04-23T06:09:14.686Z,101093.49
2019-04-23T06:14:23.679Z,101084.77
2019-04-23T06:24:45.167Z,101085.31
2019-04-23T06:27:08.811Z,101087.98
2019-04-23T06:29:38.570Z,101103.93
2019-04-23T06:32:14.395Z,101083.86
2019-04-23T06:34:47.286Z,101082.17
2019-04-23T06:37:18.080Z,101087.82
2019-04-23T06:42:39.258Z,101079.03
2019-04-23T06:45:08.094Z,101068.91
2019-04-23T06:47:46.456Z,101062.31
2019-04-23T06:50:19.529Z,101060.53
2019-04-23T06:52:56.045Z,101063.36
2019-04-23T06:55:37.361Z,101071.22
2019-04-23T06:58:20.763Z,101068.36
2019-04-23T07:00:48.054Z,101070.12
2019-04-23T07:03:31.215Z,101079.68
2019-04-23T07:09:05.398Z,101070.11
2019-04-23T07:11:27.079Z,101059.23
2019-04-23T07:16:22.856Z,101061.19
2019-04-23T07:18:57.568Z,101057.59
2019-04-23T07:21:27.980Z,101052.78
2019-04-23T07:24:05.688Z,101061.52
2019-04-23T07:26:41.850Z,101059.23
2019-04-23T07:29:14.302Z,101051.77
2019-04-23T07:31:50.014Z,101052.58
2019-04-23T07:34:20.361Z,101062.66
2019-04-23T07:36:55.321Z,101055.43
2019-04-23T07:39:55.904Z,101046.69
2019-04-23T07:45:12.485Z,101033.69
2019-04-23T07:55:58.937Z,101034.45
2019-04-23T07:58:33.268Z,101023.14
2019-04-23T08:01:34.504Z,101034.72
2019-04-23T08:04:04.619Z,101027.50
2019-04-23T08:06:40.943Z,101024.63
2019-04-23T08:12:01.349Z,101014.17
2019-04-23T08:14:32.808Z,101007.50
2019-04-23T08:17:04.069Z,100994.62
2019-04-23T08:19:56.058Z,100994.34
2019-04-23T08:22:28.605Z,101001.66
2019-04-23T08:27:34.467Z,100978.64
2019-04-23T08:30:10.902Z,100982.66
2019-04-23T08:32:53.299Z,100993.44
2019-04-23T08:35:21.405Z,101005.52
2019-04-23T08:40:33.576Z,100979.10
2019-04-23T08:43:40.745Z,100972.71
2019-04-23T08:46:24.765Z,100981.30
2019-04-23T08:48:57.588Z,100982.58
2019-04-23T08:51:44.076Z,100972.44
2019-04-23T08:54:02.986Z,100968.70
2019-04-23T08:56:44.507Z,100986.13
2019-04-23T08:59:18.203Z,100945.87
2019-04-23T09:01:57.947Z,100986.08
2019-04-23T09:04:24.010Z,100971.09
2019-04-23T09:07:09.707Z,100955.63
2019-04-23T09:09:43.853Z,100959.91
2019-04-23T09:14:58.437Z,100963.51
2019-04-23T09:17:40.385Z,100943.05
2019-04-23T09:22:53.088Z,100919.90
2019-04-23T09:25:37.355Z,100947.19
2019-04-23T09:28:24.142Z,100942.77
2019-04-23T09:30:49.381Z,100938.63
2019-04-23T09:33:45.446Z,100932.84
2019-04-23T09:36:13.218Z,100927.18
2019-04-23T09:44:14.413Z,100924.02
2019-04-23T09:49:46.772Z,100927.09
2019-04-23T09:55:15.347Z,100947.49
2019-04-23T09:58:00.645Z,100928.20
2019-04-23T10:03:02.447Z,100932.34
2019-04-23T10:05:33.545Z,100932.89
2019-04-23T10:08:05.148Z,100923.70
2019-04-23T10:10:32.278Z,100905.61
2019-04-23T10:13:06.010Z,100901.48
2019-04-23T10:15:41.111Z,100896.20
2019-04-23T10:18:12.008Z,100906.16
2019-04-23T10:20:44.595Z,100895.39
2019-04-23T10:23:16.824Z,100904.68
2019-04-23T10:25:49.926Z,100879.17
2019-04-23T10:28:26.594Z,100900.52
2019-04-23T10:31:00.674Z,100877.31
2019-04-23T10:33:32.502Z,100900.96
2019-04-23T10:36:11.270Z,100883.47
2019-04-23T10:38:48.285Z,100891.67
2019-04-23T10:41:16.081Z,100874.14
2019-04-23T10:43:52.291Z,100889.98
2019-04-23T10:46:49.372Z,100862.13
2019-04-23T10:54:41.922Z,100864.09
2019-04-23T10:57:26.585Z,100864.82
2019-04-23T10:59:48.966Z,100854.75
2019-04-23T11:05:04.370Z,100853.47
2019-04-23T11:07:36.844Z,100860.19
2019-04-23T11:13:00.958Z,100852.77
2019-04-23T11:15:38.318Z,100856.55
2019-04-23T11:25:36.737Z,100846.08
2019-04-23T11:28:21.171Z,100852.91
2019-04-23T11:30:45.239Z,100863.33
2019-04-23T11:36:19.376Z,100835.53
2019-04-23T11:41:09.051Z,100840.59
2019-04-23T11:43:39.514Z,100836.77
2019-04-23T11:46:32.556Z,100821.69
2019-04-23T11:49:07.005Z,100827.12
2019-04-23T11:59:10.985Z,100816.47
2019-04-23T12:04:28.870Z,100821.56
2019-04-23T12:06:52.952Z,100816.11
2019-04-23T12:12:10.783Z,100806.30
2019-04-23T12:14:59.864Z,100793.39
2019-04-23T12:19:57.536Z,100791.24
2019-04-23T12:27:31.500Z,100791.58
2019-04-23T12:30:08.334Z,100776.41
2019-04-23T12:35:17.739Z,100782.39
2019-04-23T12:40:32.413Z,100801.59
2019-04-23T12:43:12.099Z,100795.55
2019-04-23T12:48:35.011Z,100798.34
2019-04-23T12:51:17.142Z,100796.84
2019-04-23T12:53:33.603Z,100804.81
2019-04-23T12:56:02.481Z,100789.27
2019-04-23T12:58:29.369Z,100780.44
2019-04-23T13:01:14.169Z,100752.95
2019-04-23T13:03:59.679Z,100795.48
2019-04-23T13:06:23.669Z,100789.28
2019-04-23T13:09:17.594Z,100792.94
2019-04-23T13:11:45.604Z,100789.32
2019-04-23T13:14:29.427Z,100780.66
2019-04-23T13:17:02.109Z,100784.53
2019-04-23T13:19:39.907Z,100774.41
2019-04-23T13:24:40.797Z,100766.95
2019-04-23T13:27:46.920Z,100776.17
2019-04-23T13:32:55.291Z,100775.25
2019-04-23T13:35:38.358Z,100767.36
2019-04-23T13:38:03.270Z,100767.92
2019-04-23T13:40:39.481Z,100769.56
2019-04-23T13:43:14.904Z,100770.41
2019-04-23T13:45:59.243Z,100763.17
2019-04-23T13:53:37.162Z,100770.18
2019-04-23T13:56:02.143Z,100761.70
2019-04-23T13:58:34.366Z,100766.67
2019-04-23T14:04:01.297Z,100747.30
2019-04-23T14:11:26.297Z,100727.88
2019-04-23T14:14:05.611Z,100742.09
2019-04-23T14:16:39.318Z,100718.70
2019-04-23T14:19:02.486Z,100723.39
2019-04-23T14:21:44.509Z,100719.95
2019-04-23T14:24:45.887Z,100719.33
2019-04-23T14:27:00.788Z,100730.89
2019-04-23T14:29:39.287Z,100728.81
2019-04-23T14:32:23.456Z,100723.54
2019-04-23T14:34:43.879Z,100720.42
2019-04-23T14:37:17.624Z,100719.83
2019-04-23T14:39:52.381Z,100728.08
2019-04-23T14:42:33.393Z,100730.97
2019-04-23T14:45:21.417Z,100720.39
2019-04-23T14:47:48.820Z,100721.33
2019-04-23T14:58:18.190Z,100716.84
2019-04-23T15:00:59.719Z,100717.44
2019-04-23T15:03:27.254Z,100708.98
2019-04-23T15:06:06.618Z,100712.52
2019-04-23T15:08:41.622Z,100715.09
2019-04-23T15:11:21.342Z,100727.19
2019-04-23T15:13:58.034Z,100714.72
2019-04-23T15:16:35.073Z,100718.15
2019-04-23T15:22:05.243Z,100710.87
2019-04-23T15:24:43.864Z,100703.67
2019-04-23T15:29:31.778Z,100706.33
2019-04-23T15:32:31.319Z,100703.93
2019-04-23T15:35:13.418Z,100694.10
2019-04-23T15:38:16.187Z,100700.15
2019-04-23T15:40:11.089Z,100704.56
2019-04-23T15:42:42.109Z,100704.62
2019-04-23T15:48:07.975Z,100705.71
2019-04-23T15:50:41.008Z,100710.44
2019-04-23T15:53:17.511Z,100705.05
2019-04-23T16:01:27.162Z,100698.14
2019-04-23T16:03:25.151Z,100695.27
2019-04-23T16:05:57.405Z,100680.34
2019-04-23T16:19:52.812Z,100677.55
2019-04-23T16:22:03.777Z,100680.73
2019-04-23T16:24:42.070Z,100689.33
2019-04-23T16:27:11.246Z,100687.58
2019-04-23T16:32:28.314Z,100684.72
2019-04-23T16:35:06.778Z,100699.05
2019-04-23T16:40:16.321Z,100696.45
2019-04-23T16:42:38.186Z,100700.12
2019-04-23T16:45:16.416Z,100688.77
2019-04-23T16:47:49.059Z,100705.81
2019-04-23T16:53:01.556Z,100705.63
2019-04-23T16:58:23.299Z,100714.94
2019-04-23T17:01:00.400Z,100706.58
2019-04-23T17:03:28.544Z,100707.84
2019-04-23T17:08:52.283Z,100695.89
2019-04-23T17:11:15.376Z,100696.05
2019-04-23T17:13:59.070Z,100698.05
2019-04-23T17:16:30.261Z,100691.16
2019-04-23T17:19:09.306Z,100700.09
2019-04-23T17:21:33.097Z,100691.51
2019-04-23T17:24:18.951Z,100689.46
2019-04-23T17:26:46.126Z,100688.62
2019-04-23T17:29:31.300Z,100684.50
2019-04-23T17:32:04.100Z,100689.96
2019-04-23T17:34:34.862Z,100687.09
2019-04-23T17:37:20.707Z,100687.13
2019-04-23T17:40:08.485Z,100687.17
2019-04-23T17:42:30.659Z,100690.95
2019-04-23T17:48:03.831Z,100690.17
2019-04-23T18:04:15.230Z,100690.11
2019-04-23T18:09:08.930Z,100681.27
2019-04-23T18:14:08.282Z,100702.44
2019-04-23T18:22:15.517Z,100705.50
2019-04-23T18:27:48.305Z,100700.48
2019-04-23T18:30:41.003Z,100706.82
2019-04-23T18:34:03.610Z,100697.05
2019-04-23T18:36:11.196Z,100717.20
2019-04-23T18:38:53.788Z,100710.03
2019-04-23T18:41:41.579Z,100711.32
2019-04-23T18:44:13.742Z,100712.33
2019-04-23T18:46:43.782Z,100711.77
2019-04-23T18:49:33.149Z,100710.92
2019-04-23T18:52:05.926Z,100714.48
2019-04-23T18:54:45.230Z,100707.91
2019-04-23T18:57:12.934Z,100709.75
2019-04-23T19:05:18.606Z,100713.88
2019-04-23T19:10:50.630Z,100709.23
2019-04-23T19:13:39.889Z,100704.45
2019-04-23T19:16:09.643Z,100712.92
2019-04-23T19:18:49.714Z,100712.97
2019-04-23T19:27:03.332Z,100711.19
2019-04-23T19:29:39.627Z,100720.46
2019-04-23T19:32:00.750Z,100717.72
2019-04-23T19:34:46.870Z,100715.02
2019-04-23T19:37:44.215Z,100712.06
2019-04-23T19:40:06.891Z,100710.92
2019-04-23T19:42:52.351Z,100710.98
2019-04-23T19:45:29.184Z,100709.08
2019-04-23T19:50:50.002Z,100703.55
2019-04-23T19:53:36.358Z,100697.61
2019-04-23T19:58:46.774Z,100698.52
2019-04-23T20:06:40.552Z,100697.48
2019-04-23T20:11:34.916Z,100687.52
2019-04-23T20:14:00.957Z,100690.64
2019-04-23T20:17:04.429Z,100693.73
2019-04-23T20:19:35.932Z,100681.36
2019-04-23T20:24:44.395Z,100683.41
2019-04-23T20:30:04.392Z,100678.67
2019-04-23T20:37:48.548Z,100669.25
2019-04-23T20:40:02.575Z,100668.20
2019-04-23T20:42:34.765Z,100672.49
2019-04-23T20:45:16.536Z,100670.80
2019-04-23T20:47:45.459Z,100668.54
2019-04-23T20:50:12.232Z,100665.00
2019-04-23T20:52:56.362Z,100668.05
2019-04-23T20:55:31.194Z,100666.70
2019-04-23T20:58:26.448Z,100669.53
2019-04-23T21:00:59.200Z,100664.91
2019-04-23T21:06:08.694Z,100672.99
2019-04-23T21:09:07.354Z,100663.56
2019-04-23T21:11:36.635Z,100664.10
2019-04-23T21:14:03.523Z,100668.00
2019-04-23T21:16:32.753Z,100671.72
2019-04-23T21:19:02.506Z,100660.09
2019-04-23T21:21:46.918Z,100662.21
2019-04-23T21:24:11.097Z,100663.84
2019-04-23T21:26:50.237Z,100664.61
2019-04-23T21:29:26.517Z,100665.64
2019-04-23T21:31:59.745Z,100664.64
2019-04-23T21:34:31.759Z,100669.05
2019-04-23T21:37:23.615Z,100665.25
2019-04-23T21:42:44.359Z,100661.22
2019-04-23T21:45:09.094Z,100658.34
2019-04-23T21:47:51.804Z,100664.26
2019-04-23T21:50:26.819Z,100664.77
2019-04-23T21:55:36.988Z,100671.20
2019-04-23T21:58:07.073Z,100668.30
2019-04-23T22:00:36.728Z,100662.09
2019-04-23T22:03:28.989Z,100661.15
2019-04-23T22:05:50.845Z,100661.64
2019-04-23T22:08:36.885Z,100659.95
2019-04-23T22:11:10.513Z,100662.36
2019-04-23T22:13:36.922Z,100654.66
2019-04-23T22:18:34.429Z,100655.38
2019-04-23T22:21:09.047Z,100659.05
2019-04-23T22:23:50.978Z,100654.25
2019-04-23T22:26:23.879Z,100653.32
2019-04-23T22:28:58.060Z,100662.36
2019-04-23T22:31:18.685Z,100654.58
2019-04-23T22:34:01.520Z,100659.45
2019-04-23T22:36:21.133Z,100663.58
2019-04-23T22:39:03.448Z,100659.95
2019-04-23T22:41:37.826Z,100652.84
2019-04-23T22:44:22.524Z,100659.20
2019-04-23T22:49:28.697Z,100649.01
2019-04-23T22:52:02.606Z,100655.22
2019-04-23T22:54:31.842Z,100651.69
2019-04-23T22:56:57.932Z,100647.03
2019-04-23T22:59:48.499Z,100653.39
2019-04-23T23:02:37.152Z,100649.36
2019-04-23T23:05:50.434Z,100645.47
2019-04-23T23:07:47.711Z,100649.14
2019-04-23T23:10:15.489Z,100650.13
2019-04-23T23:12:52.877Z,100636.35
2019-04-23T23:15:26.568Z,100638.68
2019-04-23T23:18:02.414Z,100637.80
2019-04-23T23:23:06.115Z,100644.77
2019-04-23T23:25:31.207Z,100644.42
2019-04-23T23:30:51.890Z,100642.98
2019-04-23T23:35:54.839Z,100639.23
2019-04-23T23:38:42.212Z,100634.73
2019-04-23T23:41:03.842Z,100632.19
2019-04-23T23:43:29.742Z,100633.17
2019-04-23T23:46:13.970Z,100637.45
2019-04-23T23:48:35.937Z,100630.85
2019-04-23T23:51:15.784Z,100630.59
2019-04-23T23:54:05.034Z,100625.01
2019-04-23T23:56:14.070Z,100619.28
2019-04-23T23:58:56.926Z,100623.80
